Time;durP1;ratioP1;P1;durP2;ratioP2;P2;SDS_P1;SDS_P2;PMS_P1;PMS_P2;Temp;Humidity;BMP_temperature;BMP_pressure;BME280_temperature;BME280_humidity;BME280_pressure;Samples;Min_cycle;Max_cycle;Signal;HPM_P1;HPM_P2
2021/07/02 00:00:35;;;;;;;10.63;6.08;;;;;;;;;;369898;107;1962026;-71
2021/07/02 00:01:40;;;;;;;11.91;5.56;;;;;;;;;;371294;108;1962052;-73
2021/07/02 00:02:45;;;;;;;9.10;5.17;;;;;;;;;;363379;109;1961947;-74
2021/07/02 00:03:52;;;;;;;10.39;5.82;;;;;;;;;;357211;111;1965054;-73
2021/07/02 00:04:56;;;;;;;11.38;5.88;;;;;;;;;;367632;108;1962042;-73
2021/07/02 00:06:01;;;;;;;10.05;6.12;;;;;;;;;;368903;108;1962044;-72
2021/07/02 00:07:06;;;;;;;11.18;6.57;;;;;;;;;;369427;108;1963042;-73
2021/07/02 00:08:11;;;;;;;10.79;6.23;;;;;;;;;;353476;108;1962034;-71
2021/07/02 00:09:18;;;;;;;11.83;5.78;;;;;;;;;;368838;108;1961921;-73
2021/07/02 00:10:24;;;;;;;13.31;6.74;;;;;;;;;;370878;108;1962074;-73
2021/07/02 00:11:30;;;;;;;11.13;6.03;;;;;;;;;;363314;112;1962053;-73
2021/07/02 00:12:35;;;;;;;10.88;6.24;;;;;;;;;;363066;110;1962045;-72
2021/07/02 00:13:41;;;;;;;11.59;6.64;;;;;;;;;;370592;109;1964947;-71
2021/07/02 00:14:46;;;;;;;10.06;5.92;;;;;;;;;;370176;109;1964011;-72
2021/07/02 00:15:51;;;;;;;10.42;6.36;;;;;;;;;;371284;107;1961910;-71
2021/07/02 00:17:03;;;;;;;9.56;5.64;;;;;;;;;;392531;104;1985961;-73
2021/07/02 00:18:09;;;;;;;8.97;5.53;;;;;;;;;;373886;106;1962032;-71
2021/07/02 00:19:14;;;;;;;10.87;6.57;;;;;;;;;;358119;110;1962026;-71
2021/07/02 00:20:20;;;;;;;13.49;6.01;;;;;;;;;;347268;110;1963998;-70
2021/07/02 00:21:26;;;;;;;13.51;6.49;;;;;;;;;;319178;107;2148970;-73
2021/07/02 00:22:33;;;;;;;9.28;6.07;;;;;;;;;;305173;107;2310045;-73
2021/07/02 00:23:39;;;;;;;11.91;6.13;;;;;;;;;;367466;107;1963030;-73
2021/07/02 00:24:53;;;;;;;10.18;6.23;;;;;;;;;;387292;106;1985986;-70
2021/07/02 00:25:59;;;;;;;10.67;6.31;;;;;;;;;;370616;108;1963015;-73
2021/07/02 00:27:04;;;;;;;9.58;5.56;;;;;;;;;;372927;107;1961949;-72
2021/07/02 00:28:09;;;;;;;12.22;5.77;;;;;;;;;;366697;110;1962012;-72
2021/07/02 00:29:14;;;;;;;10.68;6.38;;;;;;;;;;370947;107;1962988;-71
2021/07/02 00:30:21;;;;;;;13.44;6.22;;;;;;;;;;367736;107;1962092;-73
2021/07/02 00:31:26;;;;;;;11.47;5.86;;;;;;;;;;371153;107;1963000;-72
2021/07/02 00:32:32;;;;;;;9.76;6.43;;;;;;;;;;371359;107;1962014;-73
2021/07/02 00:33:37;;;;;;;10.58;6.59;;;;;;;;;;372269;107;1961865;-73
2021/07/02 00:34:42;;;;;;;12.07;6.89;;;;;;;;;;371881;107;1961933;-72
2021/07/02 00:35:48;;;;;;;12.74;6.17;;;;;;;;;;371359;107;1963004;-72
2021/07/02 00:36:53;;;;;;;10.67;5.95;;;;;;;;;;371306;107;1961891;-72
2021/07/02 00:37:58;;;;;;;12.22;5.94;;;;;;;;;;370484;107;1962052;-71
2021/07/02 00:39:03;;;;;;;10.64;6.03;;;;;;;;;;369218;107;1962030;-72
2021/07/02 00:40:09;;;;;;;10.24;6.20;;;;;;;;;;369539;107;1964028;-72
2021/07/02 00:41:13;;;;;;;9.93;6.34;;;;;;;;;;371757;108;1961855;-72
2021/07/02 00:42:25;;;;;;;12.96;6.77;;;;;;;;;;389236;106;1985977;-72
2021/07/02 00:43:30;;;;;;;13.43;6.77;;;;;;;;;;365662;109;1963889;-72
2021/07/02 00:44:35;;;;;;;11.48;7.12;;;;;;;;;;363123;111;1961986;-70
2021/07/02 00:45:40;;;;;;;10.33;6.43;;;;;;;;;;363381;111;1961825;-72
2021/07/02 00:46:46;;;;;;;12.27;6.88;;;;;;;;;;363731;111;1960853;-71
2021/07/02 00:47:52;;;;;;;10.37;6.06;;;;;;;;;;362663;110;1963010;-71
2021/07/02 00:48:57;;;;;;;14.25;7.07;;;;;;;;;;363711;109;1962808;-72
2021/07/02 00:50:05;;;;;;;13.07;6.55;;;;;;;;;;360265;109;1960871;-71
2021/07/02 00:51:10;;;;;;;11.68;6.98;;;;;;;;;;309469;109;2262047;-73
2021/07/02 00:52:16;;;;;;;11.88;7.09;;;;;;;;;;332593;110;2015987;-72
2021/07/02 00:53:22;;;;;;;13.02;6.97;;;;;;;;;;299090;113;2285798;-72
2021/07/02 00:54:28;;;;;;;13.86;6.13;;;;;;;;;;364482;111;1960833;-72
2021/07/02 00:55:33;;;;;;;13.35;6.96;;;;;;;;;;363407;110;1961004;-72
2021/07/02 00:56:39;;;;;;;13.51;7.60;;;;;;;;;;355409;112;1961845;-72
2021/07/02 00:57:45;;;;;;;11.29;6.61;;;;;;;;;;357680;112;1962957;-71
2021/07/02 00:58:52;;;;;;;13.34;7.34;;;;;;;;;;361713;109;1962078;-71
2021/07/02 00:59:58;;;;;;;12.33;6.86;;;;;;;;;;356447;109;1961847;-72
2021/07/02 01:01:04;;;;;;;12.09;6.63;;;;;;;;;;356716;111;1961888;-71
2021/07/02 01:02:16;;;;;;;12.51;7.29;;;;;;;;;;395830;103;1989588;-72
2021/07/02 01:03:22;;;;;;;13.58;7.27;;;;;;;;;;372792;107;1961971;-72
2021/07/02 01:04:27;;;;;;;11.49;7.47;;;;;;;;;;369492;109;1963798;-72
2021/07/02 01:05:32;;;;;;;11.30;7.16;;;;;;;;;;368100;109;1964996;-73
2021/07/02 01:06:40;;;;;;;11.12;6.57;;;;;;;;;;360261;110;2957973;-72
2021/07/02 01:07:46;;;;;;;10.22;6.47;;;;;;;;;;328685;110;2676981;-73
2021/07/02 01:08:51;;;;;;;13.28;7.65;;;;;;;;;;331393;108;2036799;-73
2021/07/02 01:09:56;;;;;;;11.72;6.71;;;;;;;;;;314723;107;2240026;-73
2021/07/02 01:11:02;;;;;;;13.24;6.72;;;;;;;;;;298784;113;2259019;-72
2021/07/02 01:12:13;;;;;;;9.85;6.19;;;;;;;;;;389814;106;1985991;-73
2021/07/02 01:13:20;;;;;;;16.46;8.26;;;;;;;;;;371227;107;1962017;-72
2021/07/02 01:14:26;;;;;;;13.95;7.37;;;;;;;;;;370631;109;1961899;-73
2021/07/02 01:15:37;;;;;;;15.64;7.49;;;;;;;;;;386988;104;2904937;-73
2021/07/02 01:16:47;;;;;;;12.33;7.56;;;;;;;;;;371975;108;1963004;-72
2021/07/02 01:17:54;;;;;;;16.72;8.06;;;;;;;;;;319658;109;2459027;-72
2021/07/02 01:19:00;;;;;;;17.93;7.66;;;;;;;;;;380589;104;1961935;-72
2021/07/02 01:20:05;;;;;;;12.12;7.61;;;;;;;;;;374167;108;1962025;-70
2021/07/02 01:21:12;;;;;;;12.34;7.21;;;;;;;;;;374476;106;1961966;-72
2021/07/02 01:22:22;;;;;;;12.84;6.94;;;;;;;;;;364078;104;2859973;-72
2021/07/02 01:23:27;;;;;;;12.39;7.66;;;;;;;;;;378951;104;1962066;-73
2021/07/02 01:24:33;;;;;;;14.94;7.49;;;;;;;;;;377277;104;1961994;-72
2021/07/02 01:25:38;;;;;;;12.83;8.12;;;;;;;;;;367526;110;1962067;-73
2021/07/02 01:26:49;;;;;;;13.77;7.66;;;;;;;;;;379432;104;1961899;-71
2021/07/02 01:27:54;;;;;;;11.63;7.17;;;;;;;;;;373921;106;1962030;-72
2021/07/02 01:29:00;;;;;;;12.82;7.77;;;;;;;;;;373063;104;1960886;-71
2021/07/02 01:30:06;;;;;;;13.37;8.87;;;;;;;;;;381885;104;1960863;-70
2021/07/02 01:31:11;;;;;;;15.26;8.71;;;;;;;;;;378398;106;1960708;-71
2021/07/02 01:32:16;;;;;;;17.82;9.61;;;;;;;;;;382856;104;1960888;-71
2021/07/02 01:33:21;;;;;;;12.99;7.71;;;;;;;;;;379190;104;1961804;-72
2021/07/02 01:34:27;;;;;;;17.33;8.59;;;;;;;;;;382749;104;1961971;-72
2021/07/02 01:35:32;;;;;;;16.39;8.81;;;;;;;;;;381070;103;1960787;-72
2021/07/02 01:36:39;;;;;;;17.98;9.31;;;;;;;;;;378679;105;1960930;-71
2021/07/02 01:37:46;;;;;;;13.64;8.51;;;;;;;;;;379091;106;1962059;-72
2021/07/02 01:38:51;;;;;;;17.95;9.21;;;;;;;;;;381102;104;1960855;-72
2021/07/02 01:39:57;;;;;;;14.05;8.37;;;;;;;;;;372480;107;1960732;-73
2021/07/02 01:41:03;;;;;;;18.45;8.32;;;;;;;;;;373219;105;1960737;-73
2021/07/02 01:42:10;;;;;;;15.13;8.55;;;;;;;;;;376345;106;1961096;-73
2021/07/02 01:43:17;;;;;;;14.98;9.23;;;;;;;;;;340120;106;2890770;-72
2021/07/02 01:44:22;;;;;;;15.08;8.56;;;;;;;;;;318379;104;2288689;-73
2021/07/02 01:45:28;;;;;;;17.37;9.47;;;;;;;;;;323762;105;2245871;-74
2021/07/02 01:46:34;;;;;;;16.76;8.28;;;;;;;;;;377714;106;1964024;-72
2021/07/02 01:47:40;;;;;;;15.14;8.38;;;;;;;;;;377845;105;1961986;-72
2021/07/02 01:48:46;;;;;;;12.77;8.41;;;;;;;;;;376754;106;1961002;-72
2021/07/02 01:49:53;;;;;;;16.22;8.41;;;;;;;;;;379546;106;1962004;-72
2021/07/02 01:51:00;;;;;;;13.88;8.98;;;;;;;;;;375709;104;1961799;-72
2021/07/02 01:52:05;;;;;;;16.99;10.57;;;;;;;;;;357864;106;1962051;-73
2021/07/02 01:53:10;;;;;;;17.15;9.74;;;;;;;;;;361384;106;1962043;-72
2021/07/02 01:54:16;;;;;;;15.57;9.08;;;;;;;;;;381906;106;1961985;-72
2021/07/02 01:55:22;;;;;;;17.84;10.97;;;;;;;;;;383897;106;1961976;-72
2021/07/02 01:56:30;;;;;;;14.11;9.07;;;;;;;;;;380434;104;1962051;-73
2021/07/02 01:57:36;;;;;;;14.72;9.08;;;;;;;;;;334661;104;2473969;-72
2021/07/02 01:58:43;;;;;;;15.86;9.34;;;;;;;;;;378556;104;1961959;-72
2021/07/02 01:59:50;;;;;;;15.39;8.49;;;;;;;;;;363350;108;1963060;-71
2021/07/02 02:00:56;;;;;;;16.51;9.06;;;;;;;;;;380465;104;1962038;-72
2021/07/02 02:02:03;;;;;;;16.41;9.16;;;;;;;;;;337962;106;2873021;-72
2021/07/02 02:03:08;;;;;;;14.96;9.68;;;;;;;;;;326154;106;2193016;-70
2021/07/02 02:04:13;;;;;;;17.89;11.03;;;;;;;;;;369291;104;1961777;-71
2021/07/02 02:05:19;;;;;;;15.75;9.89;;;;;;;;;;365920;104;1961975;-72
2021/07/02 02:06:25;;;;;;;17.11;10.07;;;;;;;;;;369772;108;1962002;-72
2021/07/02 02:07:31;;;;;;;15.47;10.64;;;;;;;;;;371701;107;1961907;-72
2021/07/02 02:08:43;;;;;;;15.71;9.47;;;;;;;;;;381392;106;1986894;-71
2021/07/02 02:09:50;;;;;;;15.22;9.65;;;;;;;;;;314351;109;2866960;-71
2021/07/02 02:10:56;;;;;;;14.80;9.22;;;;;;;;;;363502;110;1962009;-73
2021/07/02 02:12:09;;;;;;;13.82;10.12;;;;;;;;;;399840;103;1985934;-70
2021/07/02 02:13:16;;;;;;;14.77;9.98;;;;;;;;;;326638;105;2169009;-71
2021/07/02 02:14:23;;;;;;;15.44;10.23;;;;;;;;;;376457;105;1961090;-72
2021/07/02 02:15:29;;;;;;;13.53;10.27;;;;;;;;;;376613;105;1960861;-71
2021/07/02 02:16:37;;;;;;;15.26;10.94;;;;;;;;;;332061;107;2766926;-71
2021/07/02 02:17:44;;;;;;;15.92;9.98;;;;;;;;;;377469;107;1962088;-71
2021/07/02 02:18:58;;;;;;;22.80;10.81;;;;;;;;;;354229;108;2850928;-71
2021/07/02 02:20:04;;;;;;;17.07;11.39;;;;;;;;;;353068;112;1961075;-71
2021/07/02 02:21:09;;;;;;;17.41;11.34;;;;;;;;;;344274;118;1962031;-71
2021/07/02 02:22:21;;;;;;;14.75;10.21;;;;;;;;;;403626;103;1985883;-72
2021/07/02 02:23:26;;;;;;;17.79;11.22;;;;;;;;;;382205;105;1968923;-72
2021/07/02 02:24:33;;;;;;;20.46;11.06;;;;;;;;;;372627;107;1961980;-72
2021/07/02 02:25:44;;;;;;;15.93;11.53;;;;;;;;;;393678;103;1964839;-72
2021/07/02 02:26:50;;;;;;;15.59;10.54;;;;;;;;;;379557;105;1965824;-73
2021/07/02 02:27:55;;;;;;;17.48;11.91;;;;;;;;;;368268;105;1962010;-73
2021/07/02 02:29:00;;;;;;;16.00;10.98;;;;;;;;;;346740;107;1962053;-73
2021/07/02 02:30:06;;;;;;;15.81;11.19;;;;;;;;;;340980;110;1961941;-73
2021/07/02 02:31:12;;;;;;;15.66;10.22;;;;;;;;;;377617;107;1964027;-73
2021/07/02 02:32:23;;;;;;;15.49;10.67;;;;;;;;;;393801;104;1986991;-72
2021/07/02 02:33:28;;;;;;;16.37;10.75;;;;;;;;;;373316;106;1969985;-72
2021/07/02 02:34:34;;;;;;;16.72;10.35;;;;;;;;;;372461;108;1962996;-72
2021/07/02 02:35:39;;;;;;;14.98;10.63;;;;;;;;;;372930;106;1965012;-72
2021/07/02 02:36:44;;;;;;;13.61;10.64;;;;;;;;;;379997;106;1962013;-72
2021/07/02 02:37:50;;;;;;;14.31;10.99;;;;;;;;;;376729;106;1961950;-70
2021/07/02 02:38:55;;;;;;;14.29;10.95;;;;;;;;;;376699;106;1963102;-72
2021/07/02 02:40:01;;;;;;;15.22;10.70;;;;;;;;;;377398;106;1961974;-72
2021/07/02 02:41:07;;;;;;;17.71;11.37;;;;;;;;;;381755;105;1963054;-71
2021/07/02 02:42:12;;;;;;;14.86;10.57;;;;;;;;;;383306;105;1961987;-72
2021/07/02 02:43:24;;;;;;;16.57;11.37;;;;;;;;;;371715;104;1986858;-72
2021/07/02 02:44:29;;;;;;;14.06;10.72;;;;;;;;;;371057;107;1969868;-72
2021/07/02 02:45:34;;;;;;;13.78;10.56;;;;;;;;;;354660;107;1962029;-72
2021/07/02 02:46:40;;;;;;;14.68;10.46;;;;;;;;;;362386;106;1962099;-72
2021/07/02 02:47:45;;;;;;;15.45;10.84;;;;;;;;;;371077;107;1962990;-70
2021/07/02 02:48:51;;;;;;;15.76;10.68;;;;;;;;;;375461;106;1962876;-71
2021/07/02 02:49:56;;;;;;;15.15;10.45;;;;;;;;;;378422;105;1961940;-73
2021/07/02 02:51:02;;;;;;;15.48;10.94;;;;;;;;;;376801;107;1961858;-74
2021/07/02 02:52:07;;;;;;;15.07;10.90;;;;;;;;;;377517;107;1962052;-73
2021/07/02 02:53:12;;;;;;;14.87;11.23;;;;;;;;;;374995;107;1961961;-71
2021/07/02 02:54:17;;;;;;;15.82;10.99;;;;;;;;;;373115;107;1962956;-71
2021/07/02 02:55:23;;;;;;;18.03;11.08;;;;;;;;;;376603;107;1961982;-72
2021/07/02 02:56:29;;;;;;;17.42;11.29;;;;;;;;;;378516;107;1962024;-71
2021/07/02 02:57:35;;;;;;;14.11;11.01;;;;;;;;;;378054;107;1961946;-69
2021/07/02 02:58:40;;;;;;;15.43;10.33;;;;;;;;;;377363;105;1964061;-72
2021/07/02 02:59:46;;;;;;;14.89;10.90;;;;;;;;;;375852;107;1961987;-71
2021/07/02 03:00:53;;;;;;;14.28;10.63;;;;;;;;;;333662;107;2875027;-72
2021/07/02 03:01:59;;;;;;;14.98;10.24;;;;;;;;;;325445;109;2123932;-72
2021/07/02 03:03:04;;;;;;;16.19;9.94;;;;;;;;;;310806;107;2286807;-72
2021/07/02 03:04:12;;;;;;;15.81;10.79;;;;;;;;;;367086;109;1962057;-71
2021/07/02 03:05:17;;;;;;;13.89;10.78;;;;;;;;;;375437;107;1962010;-70
2021/07/02 03:06:24;;;;;;;15.03;10.93;;;;;;;;;;373896;107;1962030;-72
2021/07/02 03:07:29;;;;;;;16.99;12.07;;;;;;;;;;364117;107;2924937;-72
2021/07/02 03:08:36;;;;;;;16.03;11.51;;;;;;;;;;327535;107;2113961;-73
2021/07/02 03:09:41;;;;;;;16.05;11.92;;;;;;;;;;356865;107;1964040;-72
2021/07/02 03:10:46;;;;;;;17.65;11.99;;;;;;;;;;351824;107;1963094;-73
2021/07/02 03:11:52;;;;;;;15.65;12.04;;;;;;;;;;349425;105;1961991;-72
2021/07/02 03:13:04;;;;;;;18.11;14.38;;;;;;;;;;395202;104;2070945;-72
2021/07/02 03:14:12;;;;;;;16.08;12.47;;;;;;;;;;371518;105;1965056;-72
2021/07/02 03:15:17;;;;;;;17.86;12.97;;;;;;;;;;325863;107;2795940;-74
2021/07/02 03:16:30;;;;;;;16.72;13.14;;;;;;;;;;405192;101;1961992;-72
2021/07/02 03:17:36;;;;;;;16.37;12.51;;;;;;;;;;383726;105;1965321;-73
2021/07/02 03:18:42;;;;;;;16.51;12.17;;;;;;;;;;382331;103;1961996;-72
2021/07/02 03:19:48;;;;;;;17.33;12.48;;;;;;;;;;386755;103;1961792;-73
2021/07/02 03:20:54;;;;;;;16.99;13.35;;;;;;;;;;347817;105;2636929;-73
2021/07/02 03:22:00;;;;;;;15.67;12.19;;;;;;;;;;373203;103;1962009;-71
2021/07/02 03:23:05;;;;;;;17.06;12.07;;;;;;;;;;372491;103;1961006;-71
2021/07/02 03:24:11;;;;;;;17.69;12.77;;;;;;;;;;385567;105;1962012;-71
2021/07/02 03:25:16;;;;;;;18.79;13.37;;;;;;;;;;387038;103;1961943;-72
2021/07/02 03:26:22;;;;;;;17.69;12.07;;;;;;;;;;388722;103;1962910;-72
2021/07/02 03:27:28;;;;;;;17.94;12.58;;;;;;;;;;385343;103;1962051;-74
2021/07/02 03:28:35;;;;;;;18.53;13.93;;;;;;;;;;385945;103;1962039;-73
2021/07/02 03:29:40;;;;;;;17.34;12.53;;;;;;;;;;388780;103;1961985;-73
2021/07/02 03:30:45;;;;;;;16.77;12.43;;;;;;;;;;379173;106;1961091;-72
2021/07/02 03:31:51;;;;;;;16.96;12.46;;;;;;;;;;369922;105;2939849;-72
2021/07/02 03:32:57;;;;;;;14.81;11.72;;;;;;;;;;336432;103;2893939;-72
2021/07/02 03:34:03;;;;;;;19.82;12.05;;;;;;;;;;315468;105;2270046;-73
2021/07/02 03:35:09;;;;;;;17.47;12.26;;;;;;;;;;314831;105;2285578;-72
2021/07/02 03:36:17;;;;;;;15.72;11.21;;;;;;;;;;381108;103;1962048;-72
2021/07/02 03:37:24;;;;;;;16.91;11.64;;;;;;;;;;343551;103;2771014;-73
2021/07/02 03:38:30;;;;;;;14.51;10.70;;;;;;;;;;386270;103;1961988;-72
2021/07/02 03:39:35;;;;;;;17.23;12.04;;;;;;;;;;376396;106;1963155;-73
2021/07/02 03:40:42;;;;;;;15.77;11.14;;;;;;;;;;386008;103;1962110;-72
2021/07/02 03:41:47;;;;;;;15.62;10.71;;;;;;;;;;386195;103;1964084;-72
2021/07/02 03:42:52;;;;;;;14.54;10.75;;;;;;;;;;391468;103;1962997;-71
2021/07/02 03:43:57;;;;;;;15.70;10.24;;;;;;;;;;386102;103;1962024;-72
2021/07/02 03:45:03;;;;;;;13.79;9.92;;;;;;;;;;386316;103;1963050;-72
2021/07/02 03:46:10;;;;;;;13.05;10.00;;;;;;;;;;377873;103;2908887;-72
2021/07/02 03:47:17;;;;;;;13.06;9.98;;;;;;;;;;378218;103;1961942;-72
2021/07/02 03:48:22;;;;;;;14.19;9.69;;;;;;;;;;382136;103;1961885;-72
2021/07/02 03:49:29;;;;;;;13.76;9.99;;;;;;;;;;385052;105;1963059;-71
2021/07/02 03:50:37;;;;;;;15.84;9.48;;;;;;;;;;385950;103;1962940;-72
2021/07/02 03:51:44;;;;;;;15.77;9.47;;;;;;;;;;342799;103;2724987;-73
2021/07/02 03:52:49;;;;;;;13.76;8.89;;;;;;;;;;388260;103;1962051;-73
2021/07/02 03:53:54;;;;;;;14.70;10.24;;;;;;;;;;386265;103;1963010;-73
2021/07/02 03:54:59;;;;;;;13.86;9.11;;;;;;;;;;386229;103;1961903;-73
2021/07/02 03:56:06;;;;;;;14.38;9.72;;;;;;;;;;385778;103;1962012;-73
2021/07/02 03:57:11;;;;;;;13.16;9.62;;;;;;;;;;386710;103;1962017;-73
2021/07/02 03:58:16;;;;;;;12.30;9.00;;;;;;;;;;388090;103;1961832;-72
2021/07/02 03:59:27;;;;;;;12.43;9.16;;;;;;;;;;394828;106;1986055;-72
2021/07/02 04:00:34;;;;;;;13.66;9.64;;;;;;;;;;373490;105;1970965;-72
2021/07/02 04:01:40;;;;;;;14.22;9.96;;;;;;;;;;337016;108;2645017;-73
2021/07/02 04:02:46;;;;;;;14.25;9.21;;;;;;;;;;300907;105;2374987;-72
2021/07/02 04:03:51;;;;;;;15.33;10.33;;;;;;;;;;344308;107;1962034;-74
2021/07/02 04:04:56;;;;;;;15.81;9.79;;;;;;;;;;311828;107;2239059;-72
2021/07/02 04:06:02;;;;;;;18.64;10.76;;;;;;;;;;352522;107;1964043;-72
2021/07/02 04:07:08;;;;;;;16.77;10.74;;;;;;;;;;354222;108;1962052;-73
2021/07/02 04:08:13;;;;;;;18.03;10.28;;;;;;;;;;370446;107;1961964;-73
2021/07/02 04:09:25;;;;;;;13.14;10.26;;;;;;;;;;393512;104;1985697;-74
2021/07/02 04:10:33;;;;;;;15.80;10.67;;;;;;;;;;344618;107;2526232;-73
2021/07/02 04:11:38;;;;;;;12.66;9.69;;;;;;;;;;311315;107;2261009;-71
2021/07/02 04:12:44;;;;;;;13.68;9.84;;;;;;;;;;349218;107;1962042;-72
2021/07/02 04:13:49;;;;;;;15.48;9.97;;;;;;;;;;370676;107;1964889;-72
2021/07/02 04:14:54;;;;;;;14.96;9.76;;;;;;;;;;361906;106;1961986;-73
2021/07/02 04:16:09;;;;;;;13.45;10.03;;;;;;;;;;342007;107;2014001;-73
2021/07/02 04:17:16;;;;;;;13.29;10.28;;;;;;;;;;324951;110;2121983;-73
2021/07/02 04:18:27;;;;;;;14.25;9.41;;;;;;;;;;392028;104;1965984;-73
2021/07/02 04:19:36;;;;;;;17.46;11.04;;;;;;;;;;371909;107;1961865;-73
2021/07/02 04:20:48;;;;;;;14.06;10.26;;;;;;;;;;393225;103;1985986;-72
2021/07/02 04:21:53;;;;;;;14.30;9.81;;;;;;;;;;374774;105;1961956;-72
2021/07/02 04:23:17;;;;;;;13.98;9.46;;;;;;;;;;353654;109;1962006;-73
2021/07/02 04:24:29;;;;;;;14.84;9.57;;;;;;;;;;375978;108;1985915;-73
2021/07/02 04:25:36;;;;;;;17.02;10.39;;;;;;;;;;358758;112;1970072;-74
2021/07/02 04:26:47;;;;;;;15.04;9.83;;;;;;;;;;372316;101;1996914;-72
2021/07/02 04:27:53;;;;;;;12.14;9.39;;;;;;;;;;315126;105;2300920;-73
2021/07/02 04:29:17;;;;;;;15.49;9.71;;;;;;;;;;376056;107;1962012;-71
2021/07/02 04:30:23;;;;;;;12.47;9.48;;;;;;;;;;327373;106;2145036;-72
2021/07/02 04:31:29;;;;;;;13.67;9.23;;;;;;;;;;333538;107;2088975;-73
2021/07/02 04:32:36;;;;;;;14.38;9.23;;;;;;;;;;337111;107;2038074;-72
2021/07/02 04:33:41;;;;;;;13.65;9.01;;;;;;;;;;376627;107;1963038;-71
2021/07/02 04:34:46;;;;;;;14.72;9.79;;;;;;;;;;376491;107;1962053;-73
2021/07/02 04:35:51;;;;;;;16.09;9.33;;;;;;;;;;378218;107;1961969;-72
2021/07/02 04:36:56;;;;;;;12.23;8.58;;;;;;;;;;376354;107;1961808;-72
2021/07/02 04:38:01;;;;;;;15.07;10.02;;;;;;;;;;365284;105;1961884;-72
2021/07/02 04:39:06;;;;;;;12.04;9.68;;;;;;;;;;328571;109;2090902;-73
2021/07/02 04:40:12;;;;;;;11.79;9.04;;;;;;;;;;377198;106;1961955;-72
2021/07/02 04:41:17;;;;;;;12.26;9.23;;;;;;;;;;382333;106;1961906;-73
2021/07/02 04:42:22;;;;;;;13.56;9.04;;;;;;;;;;378090;106;1962952;-71
2021/07/02 04:43:27;;;;;;;15.23;9.64;;;;;;;;;;353770;107;1961907;-73
2021/07/02 04:44:34;;;;;;;11.71;9.19;;;;;;;;;;326833;107;2149016;-73
2021/07/02 04:45:40;;;;;;;14.86;8.96;;;;;;;;;;375770;107;1961955;-73
2021/07/02 04:46:47;;;;;;;13.01;9.77;;;;;;;;;;375919;107;1961967;-73
2021/07/02 04:47:52;;;;;;;13.66;9.33;;;;;;;;;;376964;107;1962961;-74
2021/07/02 04:48:57;;;;;;;11.74;9.31;;;;;;;;;;375476;106;1964005;-73
2021/07/02 04:50:09;;;;;;;14.31;9.21;;;;;;;;;;370391;104;1985900;-72
2021/07/02 04:51:14;;;;;;;16.81;9.42;;;;;;;;;;363124;107;1966941;-72
2021/07/02 04:52:19;;;;;;;13.70;9.81;;;;;;;;;;338395;110;1989056;-73
2021/07/02 04:53:25;;;;;;;14.13;9.50;;;;;;;;;;316417;107;2237876;-72
2021/07/02 04:54:36;;;;;;;14.27;9.64;;;;;;;;;;396395;103;1986069;-73
2021/07/02 04:55:41;;;;;;;14.98;10.54;;;;;;;;;;375260;105;1967797;-73
2021/07/02 04:56:47;;;;;;;14.86;9.93;;;;;;;;;;375823;107;1960826;-72
2021/07/02 04:57:52;;;;;;;15.11;9.24;;;;;;;;;;373624;107;1960835;-73
2021/07/02 04:58:58;;;;;;;12.72;10.01;;;;;;;;;;382323;106;1962982;-73
2021/07/02 05:00:05;;;;;;;16.22;9.76;;;;;;;;;;378362;106;1963959;-74
2021/07/02 05:01:21;;;;;;;11.48;8.84;;;;;;;;;;377481;106;1961990;-74
2021/07/02 05:02:26;;;;;;;18.19;8.88;;;;;;;;;;360975;112;1962027;-73
2021/07/02 05:03:31;;;;;;;14.57;10.04;;;;;;;;;;358286;112;1961974;-71
2021/07/02 05:04:37;;;;;;;14.21;10.21;;;;;;;;;;352940;113;1965081;-74
2021/07/02 05:05:42;;;;;;;11.61;9.34;;;;;;;;;;352909;112;1961923;-72
2021/07/02 05:06:47;;;;;;;17.01;10.24;;;;;;;;;;355818;112;1961951;-73
2021/07/02 05:07:53;;;;;;;13.61;9.63;;;;;;;;;;355406;112;1963045;-72
2021/07/02 05:08:58;;;;;;;13.04;10.18;;;;;;;;;;352776;112;1962100;-73
2021/07/02 05:10:05;;;;;;;14.48;10.46;;;;;;;;;;352516;114;1964025;-73
2021/07/02 05:11:10;;;;;;;14.87;9.79;;;;;;;;;;324259;114;1964010;-73
2021/07/02 05:12:22;;;;;;;14.87;9.36;;;;;;;;;;391687;104;1986050;-73
2021/07/02 05:13:27;;;;;;;13.82;9.65;;;;;;;;;;375255;107;1968959;-73
2021/07/02 05:14:33;;;;;;;13.44;9.52;;;;;;;;;;377769;106;1961979;-74
2021/07/02 05:15:47;;;;;;;13.74;9.28;;;;;;;;;;387929;106;1962445;-74
2021/07/02 05:16:52;;;;;;;16.21;9.84;;;;;;;;;;370923;109;1961988;-73
2021/07/02 05:17:57;;;;;;;17.18;9.74;;;;;;;;;;363480;108;1961961;-74
2021/07/02 05:19:02;;;;;;;13.96;9.96;;;;;;;;;;346327;109;1962070;-74
2021/07/02 05:20:08;;;;;;;13.31;10.18;;;;;;;;;;327383;109;2050932;-73
2021/07/02 05:21:13;;;;;;;13.53;10.07;;;;;;;;;;293512;109;2389935;-73
2021/07/02 05:22:21;;;;;;;13.71;10.25;;;;;;;;;;316948;111;2475989;-75
2021/07/02 05:23:26;;;;;;;15.05;10.83;;;;;;;;;;365551;109;1964003;-75
2021/07/02 05:24:31;;;;;;;13.16;10.06;;;;;;;;;;368437;109;1961965;-75
2021/07/02 05:25:36;;;;;;;12.93;9.58;;;;;;;;;;364349;109;1962991;-74
2021/07/02 05:26:41;;;;;;;12.71;9.46;;;;;;;;;;354994;113;1962073;-74
2021/07/02 05:27:46;;;;;;;13.35;9.83;;;;;;;;;;352805;114;1962092;-74
2021/07/02 05:28:51;;;;;;;13.82;9.65;;;;;;;;;;355732;111;1962036;-73
2021/07/02 05:29:57;;;;;;;13.05;9.07;;;;;;;;;;362284;109;1961986;-72
2021/07/02 05:31:02;;;;;;;13.17;9.60;;;;;;;;;;363220;111;1963063;-73
2021/07/02 05:32:07;;;;;;;14.14;9.86;;;;;;;;;;364701;111;1964075;-75
2021/07/02 05:33:12;;;;;;;12.43;9.51;;;;;;;;;;348520;109;1960938;-72
2021/07/02 05:34:23;;;;;;;13.80;10.21;;;;;;;;;;378263;108;1985943;-73
2021/07/02 05:35:28;;;;;;;13.31;10.07;;;;;;;;;;361155;110;1960821;-73
2021/07/02 05:36:34;;;;;;;16.52;9.91;;;;;;;;;;358969;112;1963083;-73
2021/07/02 05:37:41;;;;;;;12.87;8.61;;;;;;;;;;355757;113;1960998;-72
2021/07/02 05:39:13;;;;;;;15.26;9.99;;;;;;;;;;409618;99;2070983;-73
2021/07/02 05:40:19;;;;;;;12.16;8.78;;;;;;;;;;344038;103;2150015;-72
2021/07/02 05:41:24;;;;;;;15.59;9.09;;;;;;;;;;359037;103;1978889;-73
2021/07/02 05:42:30;;;;;;;13.97;8.64;;;;;;;;;;332464;103;2208989;-73
2021/07/02 05:43:35;;;;;;;14.62;9.42;;;;;;;;;;326166;103;2451050;-73
2021/07/02 05:44:40;;;;;;;13.31;9.37;;;;;;;;;;324756;103;2454952;-73
2021/07/02 05:45:46;;;;;;;12.88;9.18;;;;;;;;;;318323;103;2349948;-72
2021/07/02 05:46:53;;;;;;;13.08;9.12;;;;;;;;;;386922;103;1962042;-73
2021/07/02 05:48:00;;;;;;;10.93;7.98;;;;;;;;;;390538;103;1961817;-74
2021/07/02 05:49:06;;;;;;;11.98;7.58;;;;;;;;;;391432;103;1962941;-72
2021/07/02 05:50:12;;;;;;;11.98;8.35;;;;;;;;;;354910;103;2890000;-71
2021/07/02 05:51:17;;;;;;;12.87;7.82;;;;;;;;;;336137;103;2201935;-73
2021/07/02 05:52:23;;;;;;;11.26;7.94;;;;;;;;;;322084;103;2419962;-73
2021/07/02 05:53:30;;;;;;;11.99;8.08;;;;;;;;;;387133;103;1961981;-73
2021/07/02 05:54:36;;;;;;;12.29;8.39;;;;;;;;;;387510;104;1961875;-74
2021/07/02 05:55:41;;;;;;;12.20;7.98;;;;;;;;;;387834;102;1962024;-73
2021/07/02 05:56:46;;;;;;;12.34;8.37;;;;;;;;;;390069;102;1960850;-73
2021/07/02 05:57:51;;;;;;;12.40;8.05;;;;;;;;;;386416;103;1961984;-74
2021/07/02 05:58:58;;;;;;;11.39;7.67;;;;;;;;;;384927;103;1960796;-73
2021/07/02 06:00:04;;;;;;;12.72;8.38;;;;;;;;;;385618;104;1963023;-72
2021/07/02 06:01:11;;;;;;;10.38;7.03;;;;;;;;;;340743;104;2808997;-74
2021/07/02 06:02:22;;;;;;;13.32;8.85;;;;;;;;;;394708;104;2070965;-72
2021/07/02 06:03:27;;;;;;;11.25;8.53;;;;;;;;;;378328;106;1968877;-73
2021/07/02 06:04:34;;;;;;;11.99;7.93;;;;;;;;;;375214;103;1963004;-74
2021/07/02 06:05:40;;;;;;;13.52;8.22;;;;;;;;;;366518;108;1962004;-73
2021/07/02 06:06:48;;;;;;;15.73;8.19;;;;;;;;;;367064;110;1962010;-73
2021/07/02 06:07:54;;;;;;;11.45;8.50;;;;;;;;;;336653;108;2008985;-72
2021/07/02 06:08:59;;;;;;;12.61;8.31;;;;;;;;;;360733;108;1965020;-72
2021/07/02 06:10:04;;;;;;;11.83;8.86;;;;;;;;;;344084;113;1962047;-72
2021/07/02 06:11:09;;;;;;;13.57;8.51;;;;;;;;;;357189;111;1963068;-73
2021/07/02 06:12:15;;;;;;;12.77;8.68;;;;;;;;;;339865;111;1963228;-72
2021/07/02 06:13:20;;;;;;;11.15;7.97;;;;;;;;;;306502;111;2226131;-74
2021/07/02 06:14:32;;;;;;;13.92;8.88;;;;;;;;;;385344;106;2071010;-73
2021/07/02 06:15:37;;;;;;;14.63;8.62;;;;;;;;;;367329;108;1968918;-72
2021/07/02 06:16:43;;;;;;;11.77;8.32;;;;;;;;;;362631;111;1961862;-72
2021/07/02 06:17:49;;;;;;;10.43;7.32;;;;;;;;;;356674;113;1962055;-73
2021/07/02 06:18:54;;;;;;;11.47;7.84;;;;;;;;;;354941;113;1961983;-72
2021/07/02 06:19:59;;;;;;;11.31;8.61;;;;;;;;;;352253;113;1961958;-73